Time;durP1;ratioP1;P1;durP2;ratioP2;P2;SDS_P1;SDS_P2;PMS_P1;PMS_P2;Temp;Humidity;BMP_temperature;BMP_pressure;BME280_temperature;BME280_humidity;BME280_pressure;Samples;Min_cycle;Max_cycle;Signal;HPM_P1;HPM_P2
2022/12/03 00:01:45;;;;;;;5.82;4.07;;;;;;;15.62;86.08;102222.00;20933154;28;20097;-86
2022/12/03 00:11:46;;;;;;;5.10;4.03;;;;;;;15.37;85.80;102163.53;20912303;28;20066;-87
2022/12/03 00:21:48;;;;;;;5.22;3.80;;;;;;;15.54;85.81;102184.00;20945645;28;20064;-87
2022/12/03 00:31:51;;;;;;;4.80;3.88;;;;;;;15.62;85.71;102200.53;20933157;28;20053;-87
2022/12/03 00:41:52;;;;;;;5.10;3.58;;;;;;;15.62;85.87;102191.63;20935601;28;20098;-87
2022/12/03 00:51:54;;;;;;;5.13;3.83;;;;;;;15.39;85.87;102144.66;20922765;28;20048;-87
2022/12/03 01:01:56;;;;;;;6.25;4.03;;;;;;;15.61;85.67;102179.16;20929558;28;20051;-86
2022/12/03 01:11:58;;;;;;;4.53;3.55;;;;;;;15.62;85.57;102175.53;20916604;28;20052;-87
2022/12/03 01:21:59;;;;;;;4.80;3.70;;;;;;;15.44;85.64;102151.47;20922118;28;20521;-87
2022/12/03 01:32:18;;;;;;;4.70;3.63;;;;;;;15.61;85.58;102180.00;20956912;28;20056;-87
2022/12/03 01:42:25;;;;;;;4.13;3.50;;;;;;;14.85;85.70;102044.03;20964579;28;20106;-86
2022/12/03 01:52:30;;;;;;;4.88;3.90;;;;;;;15.62;85.66;102170.16;20953610;28;20051;-86
2022/12/03 02:02:32;;;;;;;5.20;3.83;;;;;;;15.62;85.60;102175.53;20936552;28;20067;-85
2022/12/03 02:12:37;;;;;;;4.28;3.50;;;;;;;15.61;85.44;102176.47;20887799;28;20052;-86
2022/12/03 02:22:42;;;;;;;4.18;3.05;;;;;;;15.34;85.37;102126.13;20886302;28;20135;-86
2022/12/03 02:32:44;;;;;;;4.77;3.60;;;;;;;15.61;85.54;102168.44;20886206;28;20064;-85
2022/12/03 02:42:46;;;;;;;3.88;3.30;;;;;;;15.61;85.38;102177.31;20866845;28;20048;-86
2022/12/03 02:52:48;;;;;;;4.32;3.30;;;;;;;15.52;85.32;102162.66;20882620;28;20063;-86
2022/12/03 03:02:49;;;;;;;3.25;2.80;;;;;;;15.61;85.31;102165.75;20875867;28;20051;-85
2022/12/03 03:12:53;;;;;;;3.85;3.00;;;;;;;15.62;85.45;102162.09;20954045;28;20109;-86
2022/12/03 03:23:04;;;;;;;3.97;3.10;;;;;;;15.61;85.34;102145.13;20944874;28;20053;-86
2022/12/03 03:33:06;;;;;;;3.95;3.10;;;;;;;15.61;85.03;102139.75;20926622;28;20568;-86
2022/12/03 03:43:07;;;;;;;3.67;3.00;;;;;;;15.61;85.02;102144.28;20941970;28;20044;-86
2022/12/03 03:53:10;;;;;;;3.85;2.88;;;;;;;15.61;85.12;102136.22;20941577;28;20045;-86
2022/12/03 04:03:11;;;;;;;3.55;2.97;;;;;;;15.61;85.10;102133.53;20916252;28;20044;-86
2022/12/03 04:13:13;;;;;;;3.72;3.10;;;;;;;15.33;84.98;102092.22;20940347;28;20049;-85
2022/12/03 04:23:14;;;;;;;3.53;2.95;;;;;;;15.18;84.88;102081.44;20956402;28;20048;-86
2022/12/03 04:44:32;;;;;;;4.05;3.00;;;;;;;15.59;84.89;102130.91;20956755;28;20059;-85
2022/12/03 04:54:00;;;;;;;4.00;3.00;;;;;;;15.59;84.94;102130.06;20941299;28;20060;-85
2022/12/03 05:04:02;;;;;;;3.20;2.80;;;;;;;15.60;84.80;102126.44;20947799;28;20139;-86
2022/12/03 05:14:04;;;;;;;3.40;2.85;;;;;;;15.59;84.79;102130.06;20923644;28;20060;-86
2022/12/03 05:24:05;;;;;;;3.00;2.70;;;;;;;15.59;84.87;102128.25;20970150;28;20044;-86
2022/12/03 05:34:07;;;;;;;3.03;2.45;;;;;;;15.59;84.59;102113.97;20952261;28;20070;-86
2022/12/03 05:44:08;;;;;;;4.00;2.70;;;;;;;15.58;84.57;102109.56;20951362;28;20055;-85
2022/12/03 05:54:10;;;;;;;3.72;3.20;;;;;;;15.58;84.59;102106.88;20968869;28;20044;-85
2022/12/03 06:04:11;;;;;;;3.40;2.85;;;;;;;15.59;84.77;102100.53;20959717;28;20048;-85
2022/12/03 06:14:12;;;;;;;3.40;2.80;;;;;;;15.58;84.58;102090.75;20965842;28;20049;-85
2022/12/03 06:24:14;;;;;;;3.33;2.72;;;;;;;15.46;84.37;102069.03;20958604;28;20517;-85
2022/12/03 06:34:15;;;;;;;3.13;2.75;;;;;;;15.58;84.50;102090.75;20967070;28;20052;-86
2022/12/03 06:44:17;;;;;;;3.08;2.60;;;;;;;15.58;84.44;102093.44;20922978;28;20045;-86
2022/12/03 06:54:18;;;;;;;2.85;2.40;;;;;;;15.59;84.59;102090.66;20926025;28;20055;-92
2022/12/03 07:04:20;;;;;;;5.13;3.42;;;;;;;15.40;81.13;102044.41;20946854;28;20052;-93
2022/12/03 07:14:21;;;;;;;4.20;3.40;;;;;;;15.83;78.79;102095.50;20946916;28;20088;-92
2022/12/03 07:24:23;;;;;;;7.97;3.65;;;;;;;15.97;78.33;102105.44;20928880;28;20057;-93
2022/12/03 07:34:24;;;;;;;10.13;4.50;;;;;;;16.05;84.09;102108.53;20930953;28;20424;-94
2022/12/03 07:44:27;;;;;;;6.68;3.85;;;;;;;15.84;84.62;102070.38;20947598;28;20049;-86
2022/12/03 07:54:28;;;;;;;4.30;3.40;;;;;;;16.04;84.66;102109.47;20900136;28;20055;-86
2022/12/03 08:04:29;;;;;;;6.95;3.95;;;;;;;16.01;84.89;102100.75;20903377;28;20147;-86
2022/12/03 08:14:31;;;;;;;6.60;3.90;;;;;;;16.07;84.92;102108.41;20931586;28;20108;-87
2022/12/03 08:24:32;;;;;;;4.53;3.33;;;;;;;16.07;84.64;102108.41;20933999;28;20131;-87
2022/12/03 08:34:39;;;;;;;4.75;3.35;;;;;;;16.06;84.55;102099.50;20987519;28;20052;-95
2022/12/03 08:44:40;;;;;;;4.85;3.28;;;;;;;15.73;84.34;102046.88;20929256;28;20049;-84
2022/12/03 08:54:42;;;;;;;4.82;3.70;;;;;;;16.00;84.45;102102.56;20899938;28;20067;-87
2022/12/03 09:04:45;;;;;;;5.30;3.50;;;;;;;15.86;84.31;102084.59;20916351;28;20067;-87
2022/12/03 09:14:46;;;;;;;6.70;3.40;;;;;;;15.92;84.44;102094.13;20912934;28;20566;-87
2022/12/03 09:24:49;;;;;;;5.88;4.05;;;;;;;15.88;84.48;102097.94;20874020;28;20056;-86
2022/12/03 09:34:52;;;;;;;5.47;3.95;;;;;;;15.86;84.42;102086.38;20873854;28;20057;-87
2022/12/03 09:44:54;;;;;;;4.93;3.60;;;;;;;15.85;84.47;102084.66;20855937;28;20053;-87
2022/12/03 09:54:57;;;;;;;4.07;3.38;;;;;;;15.51;84.29;102037.47;20865205;28;20485;-87
2022/12/03 10:04:59;;;;;;;5.30;3.58;;;;;;;15.82;84.40;102080.38;20865451;28;20504;-87
2022/12/03 10:15:01;;;;;;;6.32;3.75;;;;;;;15.81;84.23;102081.31;20886643;28;20051;-86
2022/12/03 10:25:14;;;;;;;5.43;3.70;;;;;;;15.80;84.45;102068.84;20885998;28;20554;-87
2022/12/03 10:35:20;;;;;;;4.78;3.83;;;;;;;15.80;84.14;102056.28;20867363;28;20794;-86
2022/12/03 10:45:22;;;;;;;4.38;3.50;;;;;;;15.79;84.15;102049.19;20866661;28;20056;-86
2022/12/03 10:55:23;;;;;;;6.60;3.70;;;;;;;15.79;84.12;102029.53;20916185;28;20064;-87
2022/12/03 11:05:26;;;;;;;4.75;3.70;;;;;;;15.79;84.07;102034.91;20946071;28;20483;-86
2022/12/03 11:15:43;;;;;;;5.38;3.90;;;;;;;15.73;83.95;102011.97;20944329;28;20053;-87
2022/12/03 11:25:49;;;;;;;4.68;3.75;;;;;;;15.79;83.95;102019.63;20961477;28;20053;-87
2022/12/03 11:36:02;;;;;;;4.47;3.90;;;;;;;15.78;83.98;102004.50;20944513;28;20053;-86
2022/12/03 11:46:08;;;;;;;4.45;3.72;;;;;;;15.68;83.78;101973.81;20959729;28;20052;-86
2022/12/03 11:56:17;;;;;;;4.57;3.60;;;;;;;15.63;83.55;101957.13;20933985;28;20052;-87
2022/12/03 12:06:20;;;;;;;4.47;3.65;;;;;;;15.69;83.78;101956.75;20942425;28;20048;-87
2022/12/03 12:16:54;;;;;;;3.97;3.40;;;;;;;15.79;83.50;101952.50;20940576;28;20044;-87
2022/12/03 12:26:57;;;;;;;4.43;3.50;;;;;;;15.79;83.57;101938.25;20917902;28;20444;-86
2022/12/03 12:36:59;;;;;;;4.60;3.95;;;;;;;15.79;83.39;101922.13;20939908;28;20052;-86
2022/12/03 12:47:10;;;;;;;4.97;3.58;;;;;;;15.78;83.19;101915.03;20939385;28;20049;-86
2022/12/03 12:57:13;;;;;;;4.47;3.58;;;;;;;15.79;83.51;101908.72;20928665;28;20075;-87
2022/12/03 13:07:14;;;;;;;4.28;3.38;;;;;;;15.64;83.41;101891.75;20938668;28;20051;-87
2022/12/03 13:17:23;;;;;;;4.78;4.20;;;;;;;15.57;83.21;101866.25;20938008;28;20508;-87
2022/12/03 13:27:30;;;;;;;4.47;3.40;;;;;;;15.57;83.04;101877.00;20938276;28;20098;-86
2022/12/03 13:37:31;;;;;;;3.47;3.13;;;;;;;15.45;83.06;101846.41;20927723;28;20048;-87
2022/12/03 13:47:33;;;;;;;4.00;3.35;;;;;;;15.75;83.27;101881.19;20952703;28;20048;-87
2022/12/03 13:57:35;;;;;;;4.25;3.30;;;;;;;15.74;83.07;101879.47;20960834;28;20056;-86
2022/12/03 14:07:37;;;;;;;4.55;3.63;;;;;;;15.75;82.81;101875.81;20968601;28;20052;-87
2022/12/03 14:17:38;;;;;;;3.85;3.22;;;;;;;15.75;82.82;101877.66;20950133;28;20103;-86
2022/12/03 14:27:40;;;;;;;4.68;3.50;;;;;;;15.73;82.81;101880.41;20966074;28;20071;-87
2022/12/03 14:37:42;;;;;;;3.55;3.13;;;;;;;15.63;82.84;101852.44;20965922;28;20056;-86
2022/12/03 14:47:43;;;;;;;4.22;3.45;;;;;;;15.61;82.57;101852.53;20956974;28;20060;-86
2022/12/03 14:57:45;;;;;;;4.95;4.00;;;;;;;15.72;82.79;101867.09;20882591;28;20053;-87
2022/12/03 15:07:46;;;;;;;4.47;3.72;;;;;;;15.68;82.79;101863.75;20882310;28;20045;-85
2022/12/03 15:17:48;;;;;;;4.28;3.50;;;;;;;15.71;82.59;101863.53;20863973;28;20076;-87
2022/12/03 15:27:51;;;;;;;4.13;3.38;;;;;;;15.71;82.35;101849.28;20863582;28;20057;-87
2022/12/03 15:37:53;;;;;;;4.05;3.45;;;;;;;15.70;82.46;101848.41;20861402;28;20524;-87
2022/12/03 15:47:54;;;;;;;4.15;3.35;;;;;;;15.71;82.56;101851.97;20890734;28;20062;-87
2022/12/03 15:57:56;;;;;;;3.75;3.45;;;;;;;15.68;82.50;101853.00;20958907;28;20048;-86
2022/12/03 16:07:57;;;;;;;4.32;3.75;;;;;;;15.70;82.24;101853.78;20958139;28;20052;-87
2022/12/03 16:17:59;;;;;;;4.38;3.58;;;;;;;15.70;82.40;101851.09;20940213;28;20060;-87
2022/12/03 16:28:00;;;;;;;4.07;3.35;;;;;;;15.69;82.05;101849.38;20939403;28;20051;-86
2022/12/03 16:38:02;;;;;;;3.83;3.42;;;;;;;15.69;82.22;101840.44;20955991;28;20053;-86
2022/12/03 16:48:19;;;;;;;5.05;3.95;;;;;;;15.69;82.23;101846.69;20889896;28;20127;-87
2022/12/03 16:58:20;;;;;;;4.05;3.45;;;;;;;15.67;82.07;101837.88;20857305;28;20053;-87
2022/12/03 17:08:22;;;;;;;4.13;3.30;;;;;;;15.66;81.98;101826.25;20874151;28;20120;-86
2022/12/03 17:18:24;;;;;;;4.22;3.83;;;;;;;15.22;81.89;101766.44;20857061;28;20099;-87
2022/12/03 17:28:25;;;;;;;4.22;3.40;;;;;;;15.54;81.89;101826.19;20889963;28;20040;-87
2022/12/03 17:38:27;;;;;;;3.70;3.30;;;;;;;15.66;81.93;101834.31;20889514;28;20127;-87
2022/12/03 17:48:30;;;;;;;4.18;3.13;;;;;;;15.65;81.82;101832.56;20927272;28;20048;-87
2022/12/03 17:58:31;;;;;;;4.00;3.20;;;;;;;15.61;81.76;101819.47;20951652;28;20447;-86
2022/12/03 18:08:33;;;;;;;3.53;3.10;;;;;;;15.57;81.66;101817.94;20968102;28;20049;-87
2022/12/03 18:18:34;;;;;;;4.57;3.70;;;;;;;15.66;81.64;101828.94;20948918;28;20055;-87
2022/12/03 18:28:36;;;;;;;4.63;3.65;;;;;;;15.66;81.75;101833.47;20966282;28;20036;-87
2022/12/03 18:38:37;;;;;;;4.28;3.67;;;;;;;15.66;81.74;101834.31;20948240;28;20052;-87
2022/12/03 18:48:41;;;;;;;3.70;3.13;;;;;;;15.65;81.33;101832.56;20874031;28;20033;-87
2022/12/03 18:58:42;;;;;;;3.33;2.95;;;;;;;15.55;81.39;101803.78;20865813;28;20060;-87
2022/12/03 19:08:45;;;;;;;4.38;3.30;;;;;;;15.46;81.42;101787.28;20865227;28;20103;-87
2022/12/03 19:18:47;;;;;;;3.75;3.22;;;;;;;15.65;81.29;101807.56;20863662;28;20044;-86
2022/12/03 19:28:48;;;;;;;4.10;3.55;;;;;;;15.63;81.13;101796.91;20881731;28;20127;-86
2022/12/03 19:38:51;;;;;;;5.00;3.80;;;;;;;15.65;81.31;101799.53;20888573;28;20045;-86
2022/12/03 19:48:57;;;;;;;4.00;3.00;;;;;;;15.65;81.08;101807.56;20946961;28;20042;-89
2022/12/03 19:58:59;;;;;;;3.97;3.58;;;;;;;15.67;81.53;101805.66;21011936;22;20055;-88
2022/12/03 20:09:05;;;;;;;4.22;3.83;;;;;;;15.66;81.91;101794.03;20949693;28;20123;-87
2022/12/03 20:19:10;;;;;;;4.63;3.70;;;;;;;15.56;82.57;101784.88;20942725;28;20451;-87
2022/12/03 20:29:11;;;;;;;3.83;3.43;;;;;;;15.66;83.04;101804.78;20942649;28;20083;-87
2022/12/03 20:39:13;;;;;;;4.32;3.72;;;;;;;15.64;83.57;101809.38;20932651;28;20520;-88
2022/12/03 20:49:14;;;;;;;4.57;3.75;;;;;;;15.55;84.08;101784.97;20956706;28;20076;-88
2022/12/03 20:59:16;;;;;;;4.90;4.10;;;;;;;15.32;84.64;101747.06;20956323;28;20087;-88
2022/12/03 21:09:18;;;;;;;4.80;4.30;;;;;;;15.63;84.68;101791.56;20955984;28;20115;-88
2022/12/03 21:19:19;;;;;;;4.97;4.20;;;;;;;15.63;85.24;101796.06;20955515;28;20044;-87
2022/12/03 21:29:24;;;;;;;4.40;3.63;;;;;;;15.34;85.29;101739.78;20955663;28;20178;-88
2022/12/03 21:39:25;;;;;;;4.28;3.63;;;;;;;15.62;85.32;101780.94;20929995;28;20792;-88
2022/12/03 21:49:27;;;;;;;4.35;3.35;;;;;;;15.17;85.42;101705.97;20954516;28;20059;-88
2022/12/03 21:59:29;;;;;;;4.40;3.88;;;;;;;15.62;85.51;101775.56;20943854;28;20052;-88
2022/12/03 22:09:31;;;;;;;4.70;4.03;;;;;;;15.62;85.74;101775.56;20935095;28;20054;-88
2022/12/03 22:19:33;;;;;;;4.28;3.88;;;;;;;15.61;85.73;101763.09;20968407;28;20139;-87
2022/12/03 22:29:34;;;;;;;4.75;3.92;;;;;;;15.61;85.83;101763.94;20967569;28;20048;-87
2022/12/03 22:39:36;;;;;;;4.82;3.63;;;;;;;15.60;85.71;101756.84;20942096;28;20060;-88
2022/12/03 22:49:37;;;;;;;5.28;4.18;;;;;;;15.61;85.93;101763.94;20966217;28;20055;-88
2022/12/03 22:59:39;;;;;;;4.40;3.95;;;;;;;15.28;85.79;101691.88;20964610;28;20044;-88
2022/12/03 23:09:40;;;;;;;4.07;3.65;;;;;;;15.50;85.60;101732.47;20963565;28;20049;-88
2022/12/03 23:19:41;;;;;;;4.88;4.22;;;;;;;15.61;85.70;101736.25;20945806;28;20080;-88
2022/12/03 23:29:43;;;;;;;5.40;3.88;;;;;;;15.60;85.49;101740.75;20946331;28;20059;-88
2022/12/03 23:39:46;;;;;;;5.47;4.40;;;;;;;15.59;85.68;101735.50;20953617;28;20056;-88
2022/12/03 23:49:48;;;;;;;4.72;3.95;;;;;;;15.61;85.58;101736.25;20960344;28;20280;-88
2022/12/03 23:59:49;;;;;;;5.18;4.25;;;;;;;15.61;85.43;101728.22;20942335;28;20835;-87
